METAR Data
IDs: Format: Raw Decoded Include TAF

Data at: 0602 UTC 15 Nov 2018

METAR for:K6B9 (Skaneateles Arpt, NY, US)
Text:K6B9 150555Z AUTO 00000KT 10SM CLR M08/M09 A3053 RMK AO2
Temperature: -8.0°C ( 18°F)
Dewpoint: -9.0°C ( 16°F) [RH = 92%]
Pressure (altimeter):30.53 inches Hg (1033.9 mb)
Winds:calm
Visibility:10 or more sm (16+ km)
Ceiling:at least 12,000 feet AGL
Clouds:sky clear below 12,000 feet AGL
QC Flag:automated observation with no human augmentation
Text:K6B9 150535Z AUTO 00000KT 10SM CLR M08/M09 A3051 RMK AO2
Temperature: -8.0°C ( 18°F)
Dewpoint: -9.0°C ( 16°F) [RH = 92%]
Pressure (altimeter):30.51 inches Hg (1033.3 mb)
Winds:calm
Visibility:10 or more sm (16+ km)
Ceiling:at least 12,000 feet AGL
Clouds:sky clear below 12,000 feet AGL
QC Flag:automated observation with no human augmentation
Text:K6B9 150515Z AUTO 00000KT 10SM FEW017 SCT023 M07/M09 A3050 RMK AO2
Temperature: -7.0°C ( 19°F)
Dewpoint: -9.0°C ( 16°F) [RH = 86%]
Pressure (altimeter):30.50 inches Hg (1032.9 mb)
Winds:calm
Visibility:10 or more sm (16+ km)
Ceiling:at least 12,000 feet AGL
Clouds: few clouds at 1700 feet AGL, scattered clouds at 2300 feet AGL
QC Flag:automated observation with no human augmentation
Text:K6B9 150455Z AUTO 00000KT 10SM BKN018 BKN025 OVC036 M07/M09 A3051 RMK AO2
Temperature: -7.0°C ( 19°F)
Dewpoint: -9.0°C ( 16°F) [RH = 86%]
Pressure (altimeter):30.51 inches Hg (1033.3 mb)
Winds:calm
Visibility:10 or more sm (16+ km)
Ceiling:1800 feet AGL
Clouds: broken clouds at 1800 feet AGL, broken clouds at 2500 feet AGL, overcast cloud deck at 3600 feet AGL
QC Flag:automated observation with no human augmentation
Text:K6B9 150435Z AUTO 00000KT 10SM FEW018 FEW024 OVC035 M06/M08 A3053 RMK AO2
Temperature: -6.0°C ( 21°F)
Dewpoint: -8.0°C ( 18°F) [RH = 86%]
Pressure (altimeter):30.53 inches Hg (1033.9 mb)
Winds:calm
Visibility:10 or more sm (16+ km)
Ceiling:3500 feet AGL
Clouds: few clouds at 1800 feet AGL, few clouds at 2400 feet AGL, overcast cloud deck at 3500 feet AGL
QC Flag:automated observation with no human augmentation
Text:K6B9 150415Z AUTO 00000KT 10SM FEW020 FEW025 OVC035 M06/M08 A3053 RMK AO2
Temperature: -6.0°C ( 21°F)
Dewpoint: -8.0°C ( 18°F) [RH = 86%]
Pressure (altimeter):30.53 inches Hg (1033.9 mb)
Winds:calm
Visibility:10 or more sm (16+ km)
Ceiling:3500 feet AGL
Clouds: few clouds at 2000 feet AGL, few clouds at 2500 feet AGL, overcast cloud deck at 3500 feet AGL
QC Flag:automated observation with no human augmentation
Text:K6B9 150355Z AUTO 00000KT 10SM FEW014 BKN020 OVC038 M06/M09 A3053 RMK AO2
Temperature: -6.0°C ( 21°F)
Dewpoint: -9.0°C ( 16°F) [RH = 79%]
Pressure (altimeter):30.53 inches Hg (1033.9 mb)
Winds:calm
Visibility:10 or more sm (16+ km)
Ceiling:2000 feet AGL
Clouds: few clouds at 1400 feet AGL, broken clouds at 2000 feet AGL, overcast cloud deck at 3800 feet AGL
QC Flag:automated observation with no human augmentation
Text:K6B9 150335Z AUTO 00000KT 10SM FEW014 BKN019 OVC027 M05/M08 A3052 RMK AO2
Temperature: -5.0°C ( 23°F)
Dewpoint: -8.0°C ( 18°F) [RH = 79%]
Pressure (altimeter):30.52 inches Hg (1033.6 mb)
Winds:calm
Visibility:10 or more sm (16+ km)
Ceiling:1900 feet AGL
Clouds: few clouds at 1400 feet AGL, broken clouds at 1900 feet AGL, overcast cloud deck at 2700 feet AGL
QC Flag:automated observation with no human augmentation
Text:K6B9 150315Z AUTO 00000KT 10SM FEW021 BKN028 OVC035 M05/M08 A3052 RMK AO2
Temperature: -5.0°C ( 23°F)
Dewpoint: -8.0°C ( 18°F) [RH = 79%]
Pressure (altimeter):30.52 inches Hg (1033.6 mb)
Winds:calm
Visibility:10 or more sm (16+ km)
Ceiling:2800 feet AGL
Clouds: few clouds at 2100 feet AGL, broken clouds at 2800 feet AGL, overcast cloud deck at 3500 feet AGL
QC Flag:automated observation with no human augmentation
Text:K6B9 150255Z AUTO 00000KT 10SM BKN031 OVC038 M06/M06 A3053 RMK AO2
Temperature: -6.0°C ( 21°F)
Dewpoint: -6.0°C ( 21°F) [RH = 100%]
Pressure (altimeter):30.53 inches Hg (1033.9 mb)
Winds:calm
Visibility:10 or more sm (16+ km)
Ceiling:3100 feet AGL
Clouds: broken clouds at 3100 feet AGL, overcast cloud deck at 3800 feet AGL
QC Flag:automated observation with no human augmentation
Text:K6B9 150235Z AUTO 00000KT 10SM OVC031 M06/M06 A3054 RMK AO2
Temperature: -6.0°C ( 21°F)
Dewpoint: -6.0°C ( 21°F) [RH = 100%]
Pressure (altimeter):30.54 inches Hg (1034.3 mb)
Winds:calm
Visibility:10 or more sm (16+ km)
Ceiling:3100 feet AGL
Clouds: overcast cloud deck at 3100 feet AGL
QC Flag:automated observation with no human augmentation
Text:K6B9 150215Z AUTO 00000KT 10SM BKN030 BKN035 OVC041 M06/M06 A3054 RMK AO2
Temperature: -6.0°C ( 21°F)
Dewpoint: -6.0°C ( 21°F) [RH = 100%]
Pressure (altimeter):30.54 inches Hg (1034.3 mb)
Winds:calm
Visibility:10 or more sm (16+ km)
Ceiling:3000 feet AGL
Clouds: broken clouds at 3000 feet AGL, broken clouds at 3500 feet AGL, overcast cloud deck at 4100 feet AGL
QC Flag:automated observation with no human augmentation
Text:K6B9 150155Z AUTO 00000KT 10SM BKN034 OVC041 M06/M07 A3053 RMK AO2
Temperature: -6.0°C ( 21°F)
Dewpoint: -7.0°C ( 19°F) [RH = 93%]
Pressure (altimeter):30.53 inches Hg (1033.9 mb)
Winds:calm
Visibility:10 or more sm (16+ km)
Ceiling:3400 feet AGL
Clouds: broken clouds at 3400 feet AGL, overcast cloud deck at 4100 feet AGL
QC Flag:automated observation with no human augmentation
Text:K6B9 150135Z AUTO 00000KT 10SM BKN036 OVC041 M06/M06 A3053 RMK AO2
Temperature: -6.0°C ( 21°F)
Dewpoint: -6.0°C ( 21°F) [RH = 100%]
Pressure (altimeter):30.53 inches Hg (1033.9 mb)
Winds:calm
Visibility:10 or more sm (16+ km)
Ceiling:3600 feet AGL
Clouds: broken clouds at 3600 feet AGL, overcast cloud deck at 4100 feet AGL
QC Flag:automated observation with no human augmentation
Text:K6B9 150115Z AUTO 00000KT 10SM SCT032 OVC039 M06/M06 A3052 RMK AO2
Temperature: -6.0°C ( 21°F)
Dewpoint: -6.0°C ( 21°F) [RH = 100%]
Pressure (altimeter):30.52 inches Hg (1033.6 mb)
Winds:calm
Visibility:10 or more sm (16+ km)
Ceiling:3900 feet AGL
Clouds: scattered clouds at 3200 feet AGL, overcast cloud deck at 3900 feet AGL
QC Flag:automated observation with no human augmentation
Text:K6B9 150055Z AUTO 00000KT 10SM SCT030 OVC038 M06/M06 A3053 RMK AO2
Temperature: -6.0°C ( 21°F)
Dewpoint: -6.0°C ( 21°F) [RH = 100%]
Pressure (altimeter):30.53 inches Hg (1033.9 mb)
Winds:calm
Visibility:10 or more sm (16+ km)
Ceiling:3800 feet AGL
Clouds: scattered clouds at 3000 feet AGL, overcast cloud deck at 3800 feet AGL
QC Flag:automated observation with no human augmentation
Text:K6B9 150035Z AUTO 00000KT 10SM OVC037 M06/M07 A3053 RMK AO2
Temperature: -6.0°C ( 21°F)
Dewpoint: -7.0°C ( 19°F) [RH = 93%]
Pressure (altimeter):30.53 inches Hg (1033.9 mb)
Winds:calm
Visibility:10 or more sm (16+ km)
Ceiling:3700 feet AGL
Clouds: overcast cloud deck at 3700 feet AGL
QC Flag:automated observation with no human augmentation
Text:K6B9 150015Z AUTO 00000KT 10SM FEW025 BKN031 OVC038 M05/M06 A3053 RMK AO2
Temperature: -5.0°C ( 23°F)
Dewpoint: -6.0°C ( 21°F) [RH = 93%]
Pressure (altimeter):30.53 inches Hg (1033.9 mb)
Winds:calm
Visibility:10 or more sm (16+ km)
Ceiling:3100 feet AGL
Clouds: few clouds at 2500 feet AGL, broken clouds at 3100 feet AGL, overcast cloud deck at 3800 feet AGL
QC Flag:automated observation with no human augmentation
Text:K6B9 142355Z AUTO 00000KT 10SM FEW024 BKN031 OVC039 M05/M07 A3051 RMK AO2
Temperature: -5.0°C ( 23°F)
Dewpoint: -7.0°C ( 19°F) [RH = 86%]
Pressure (altimeter):30.51 inches Hg (1033.3 mb)
Winds:calm
Visibility:10 or more sm (16+ km)
Ceiling:3100 feet AGL
Clouds: few clouds at 2400 feet AGL, broken clouds at 3100 feet AGL, overcast cloud deck at 3900 feet AGL
QC Flag:automated observation with no human augmentation
Text:K6B9 142335Z AUTO 00000KT 10SM BKN033 OVC041 M05/M06 A3052 RMK AO2
Temperature: -5.0°C ( 23°F)
Dewpoint: -6.0°C ( 21°F) [RH = 93%]
Pressure (altimeter):30.52 inches Hg (1033.6 mb)
Winds:calm
Visibility:10 or more sm (16+ km)
Ceiling:3300 feet AGL
Clouds: broken clouds at 3300 feet AGL, overcast cloud deck at 4100 feet AGL
QC Flag:automated observation with no human augmentation
Text:K6B9 142315Z AUTO 27003KT 10SM OVC033 M05/M06 A3051 RMK AO2
Temperature: -5.0°C ( 23°F)
Dewpoint: -6.0°C ( 21°F) [RH = 93%]
Pressure (altimeter):30.51 inches Hg (1033.3 mb)
Winds:from the W (270 degrees) at 3 MPH (3 knots; 1.5 m/s)
Visibility:10 or more sm (16+ km)
Ceiling:3300 feet AGL
Clouds: overcast cloud deck at 3300 feet AGL
QC Flag:automated observation with no human augmentation
Text:K6B9 142255Z AUTO 00000KT 10SM SCT030 OVC038 M05/M06 A3050 RMK AO2
Temperature: -5.0°C ( 23°F)
Dewpoint: -6.0°C ( 21°F) [RH = 93%]
Pressure (altimeter):30.50 inches Hg (1032.9 mb)
Winds:calm
Visibility:10 or more sm (16+ km)
Ceiling:3800 feet AGL
Clouds: scattered clouds at 3000 feet AGL, overcast cloud deck at 3800 feet AGL
QC Flag:automated observation with no human augmentation
Text:K6B9 142235Z AUTO 00000KT 10SM FEW022 SCT027 BKN031 M04/M06 A3051 RMK AO2
Temperature: -4.0°C ( 25°F)
Dewpoint: -6.0°C ( 21°F) [RH = 86%]
Pressure (altimeter):30.51 inches Hg (1033.3 mb)
Winds:calm
Visibility:10 or more sm (16+ km)
Ceiling:3100 feet AGL
Clouds: few clouds at 2200 feet AGL, scattered clouds at 2700 feet AGL, broken clouds at 3100 feet AGL
QC Flag:automated observation with no human augmentation
Text:K6B9 142215Z AUTO VRB04KT 3SM -SN FEW021 OVC028 M04/M06 A3051 RMK AO2
Temperature: -4.0°C ( 25°F)
Dewpoint: -6.0°C ( 21°F) [RH = 86%]
Pressure (altimeter):30.51 inches Hg (1033.3 mb)
Winds:variable direction winds at 5 MPH (4 knots; 2.1 m/s)
Visibility: 3 sm ( 5 km)
Ceiling:2800 feet AGL
Clouds: few clouds at 2100 feet AGL, overcast cloud deck at 2800 feet AGL
Weather:-SN (light snow)
QC Flag:automated observation with no human augmentation
Text:K6B9 142155Z AUTO 00000KT 4SM -SN BKN029 OVC037 M04/M06 A3051 RMK AO2
Temperature: -4.0°C ( 25°F)
Dewpoint: -6.0°C ( 21°F) [RH = 86%]
Pressure (altimeter):30.51 inches Hg (1033.3 mb)
Winds:calm
Visibility: 4 sm ( 6 km)
Ceiling:2900 feet AGL
Clouds: broken clouds at 2900 feet AGL, overcast cloud deck at 3700 feet AGL
Weather:-SN (light snow)
QC Flag:automated observation with no human augmentation
Text:K6B9 142135Z AUTO 36003KT 7SM -SN FEW022 BKN031 OVC044 M04/M06 A3050 RMK AO2
Temperature: -4.0°C ( 25°F)
Dewpoint: -6.0°C ( 21°F) [RH = 86%]
Pressure (altimeter):30.50 inches Hg (1032.9 mb)
Winds:from the N (360 degrees) at 3 MPH (3 knots; 1.5 m/s)
Visibility: 7 sm ( 11 km)
Ceiling:3100 feet AGL
Clouds: few clouds at 2200 feet AGL, broken clouds at 3100 feet AGL, overcast cloud deck at 4400 feet AGL
Weather:-SN (light snow)
QC Flag:automated observation with no human augmentation
Text:K6B9 142115Z AUTO 00000KT 8SM -SN FEW022 BKN032 OVC048 M04/M06 A3049 RMK AO2
Temperature: -4.0°C ( 25°F)
Dewpoint: -6.0°C ( 21°F) [RH = 86%]
Pressure (altimeter):30.49 inches Hg (1032.6 mb)
Winds:calm
Visibility: 8 sm ( 13 km)
Ceiling:3200 feet AGL
Clouds: few clouds at 2200 feet AGL, broken clouds at 3200 feet AGL, overcast cloud deck at 4800 feet AGL
Weather:-SN (light snow)
QC Flag:automated observation with no human augmentation
Text:K6B9 142055Z AUTO 00000KT 10SM BKN035 OVC041 M05/M07 A3049 RMK AO2
Temperature: -5.0°C ( 23°F)
Dewpoint: -7.0°C ( 19°F) [RH = 86%]
Pressure (altimeter):30.49 inches Hg (1032.6 mb)
Winds:calm
Visibility:10 or more sm (16+ km)
Ceiling:3500 feet AGL
Clouds: broken clouds at 3500 feet AGL, overcast cloud deck at 4100 feet AGL
QC Flag:automated observation with no human augmentation
Text:K6B9 142035Z AUTO 00000KT 10SM OVC041 M05/M07 A3049 RMK AO2
Temperature: -5.0°C ( 23°F)
Dewpoint: -7.0°C ( 19°F) [RH = 86%]
Pressure (altimeter):30.49 inches Hg (1032.6 mb)
Winds:calm
Visibility:10 or more sm (16+ km)
Ceiling:4100 feet AGL
Clouds: overcast cloud deck at 4100 feet AGL
QC Flag:automated observation with no human augmentation
Text:K6B9 142015Z AUTO 00000KT 10SM FEW027 SCT035 BKN040 M04/M06 A3049 RMK AO2
Temperature: -4.0°C ( 25°F)
Dewpoint: -6.0°C ( 21°F) [RH = 86%]
Pressure (altimeter):30.49 inches Hg (1032.6 mb)
Winds:calm
Visibility:10 or more sm (16+ km)
Ceiling:4000 feet AGL
Clouds: few clouds at 2700 feet AGL, scattered clouds at 3500 feet AGL, broken clouds at 4000 feet AGL
QC Flag:automated observation with no human augmentation
Text:K6B9 141955Z AUTO VRB05KT 1 1/2SM -SN SCT016 BKN023 OVC028 M04/M06 A3049 RMK AO2
Temperature: -4.0°C ( 25°F)
Dewpoint: -6.0°C ( 21°F) [RH = 86%]
Pressure (altimeter):30.49 inches Hg (1032.6 mb)
Winds:variable direction winds at 6 MPH (5 knots; 2.6 m/s)
Visibility: 1.50 sm ( 2.41 km)
Ceiling:2300 feet AGL
Clouds: scattered clouds at 1600 feet AGL, broken clouds at 2300 feet AGL, overcast cloud deck at 2800 feet AGL
Weather:-SN (light snow)
QC Flag:automated observation with no human augmentation
Text:K6B9 141935Z AUTO 35004KT 2SM -SN FEW016 SCT026 BKN047 M04/M06 A3049 RMK AO2
Temperature: -4.0°C ( 25°F)
Dewpoint: -6.0°C ( 21°F) [RH = 86%]
Pressure (altimeter):30.49 inches Hg (1032.6 mb)
Winds:from the N (350 degrees) at 5 MPH (4 knots; 2.1 m/s)
Visibility: 2.00 sm ( 3.22 km)
Ceiling:4700 feet AGL
Clouds: few clouds at 1600 feet AGL, scattered clouds at 2600 feet AGL, broken clouds at 4700 feet AGL
Weather:-SN (light snow)
QC Flag:automated observation with no human augmentation
Text:K6B9 141915Z AUTO VRB03KT 3SM -SN FEW021 FEW030 BKN047 M04/M06 A3048 RMK AO2
Temperature: -4.0°C ( 25°F)
Dewpoint: -6.0°C ( 21°F) [RH = 86%]
Pressure (altimeter):30.48 inches Hg (1032.3 mb)
Winds:variable direction winds at 3 MPH (3 knots; 1.5 m/s)
Visibility: 3 sm ( 5 km)
Ceiling:4700 feet AGL
Clouds: few clouds at 2100 feet AGL, few clouds at 3000 feet AGL, broken clouds at 4700 feet AGL
Weather:-SN (light snow)
QC Flag:automated observation with no human augmentation
Text:K6B9 141855Z AUTO VRB04KT 4SM -SN FEW003 SCT021 SCT028 M04/M06 A3047 RMK AO2 P0001
Temperature: -4.0°C ( 25°F)
Dewpoint: -6.0°C ( 21°F) [RH = 86%]
Pressure (altimeter):30.47 inches Hg (1031.9 mb)
Winds:variable direction winds at 5 MPH (4 knots; 2.1 m/s)
Visibility: 4 sm ( 6 km)
Ceiling:at least 12,000 feet AGL
Clouds: few clouds at 300 feet AGL, scattered clouds at 2100 feet AGL, scattered clouds at 2800 feet AGL
Weather:-SN (light snow)
QC Flag:automated observation with no human augmentation
Text:K6B9 141835Z AUTO 36004KT 1/4SM -SN BKN003 OVC018 M04/M05 A3047 RMK AO2
Temperature: -4.0°C ( 25°F)
Dewpoint: -5.0°C ( 23°F) [RH = 93%]
Pressure (altimeter):30.47 inches Hg (1031.9 mb)
Winds:from the N (360 degrees) at 5 MPH (4 knots; 2.1 m/s)
Visibility: 0.25 sm ( 0.40 km)
Ceiling:300 feet AGL
Clouds: broken clouds at 300 feet AGL, overcast cloud deck at 1800 feet AGL
Weather:-SN (light snow)
QC Flag:automated observation with no human augmentation
Text:K6B9 141815Z AUTO VRB04KT 4SM -SN BKN016 BKN021 OVC031 M04/M06 A3046 RMK AO2
Temperature: -4.0°C ( 25°F)
Dewpoint: -6.0°C ( 21°F) [RH = 86%]
Pressure (altimeter):30.46 inches Hg (1031.6 mb)
Winds:variable direction winds at 5 MPH (4 knots; 2.1 m/s)
Visibility: 4 sm ( 6 km)
Ceiling:1600 feet AGL
Clouds: broken clouds at 1600 feet AGL, broken clouds at 2100 feet AGL, overcast cloud deck at 3100 feet AGL
Weather:-SN (light snow)
QC Flag:automated observation with no human augmentation